sensor_id;sensor_type;location;lat;lon;timestamp;P1;durP1;ratioP1;P2;durP2;ratioP2
30543;SDS011;43388;46.308;4.600;2023-02-15T00:00:21;10.60;;;9.50;;
30543;SDS011;43388;46.308;4.600;2023-02-15T00:02:47;10.30;;;9.30;;
30543;SDS011;43388;46.308;4.600;2023-02-15T00:05:13;10.75;;;9.15;;
30543;SDS011;43388;46.308;4.600;2023-02-15T00:07:39;11.48;;;10.10;;
30543;SDS011;43388;46.308;4.600;2023-02-15T00:10:06;11.82;;;9.35;;
30543;SDS011;43388;46.308;4.600;2023-02-15T00:12:32;10.35;;;9.02;;
30543;SDS011;43388;46.308;4.600;2023-02-15T00:14:58;9.90;;;8.90;;
30543;SDS011;43388;46.308;4.600;2023-02-15T00:17:26;11.13;;;9.27;;
30543;SDS011;43388;46.308;4.600;2023-02-15T00:19:52;10.90;;;9.77;;
30543;SDS011;43388;46.308;4.600;2023-02-15T00:22:18;10.93;;;9.90;;
30543;SDS011;43388;46.308;4.600;2023-02-15T00:24:44;11.38;;;9.75;;
30543;SDS011;43388;46.308;4.600;2023-02-15T00:27:10;11.65;;;10.13;;
30543;SDS011;43388;46.308;4.600;2023-02-15T00:29:36;12.55;;;8.98;;
30543;SDS011;43388;46.308;4.600;2023-02-15T00:32:03;11.48;;;10.32;;
30543;SDS011;43388;46.308;4.600;2023-02-15T00:34:29;10.18;;;9.25;;
30543;SDS011;43388;46.308;4.600;2023-02-15T00:36:55;15.68;;;9.40;;
30543;SDS011;43388;46.308;4.600;2023-02-15T00:39:21;12.02;;;10.27;;
30543;SDS011;43388;46.308;4.600;2023-02-15T00:41:48;14.40;;;11.07;;
30543;SDS011;43388;46.308;4.600;2023-02-15T00:44:14;11.23;;;9.55;;
30543;SDS011;43388;46.308;4.600;2023-02-15T00:46:40;11.63;;;10.18;;
30543;SDS011;43388;46.308;4.600;2023-02-15T00:49:07;10.60;;;9.52;;
30543;SDS011;43388;46.308;4.600;2023-02-15T00:51:33;11.15;;;10.05;;
30543;SDS011;43388;46.308;4.600;2023-02-15T00:53:59;9.85;;;8.80;;
30543;SDS011;43388;46.308;4.600;2023-02-15T00:56:25;12.13;;;9.30;;
30543;SDS011;43388;46.308;4.600;2023-02-15T00:58:53;10.20;;;9.20;;
30543;SDS011;43388;46.308;4.600;2023-02-15T01:01:19;11.48;;;9.93;;
30543;SDS011;43388;46.308;4.600;2023-02-15T01:03:46;11.30;;;9.50;;
30543;SDS011;43388;46.308;4.600;2023-02-15T01:06:12;11.38;;;8.73;;
30543;SDS011;43388;46.308;4.600;2023-02-15T01:08:38;9.40;;;8.50;;
30543;SDS011;43388;46.308;4.600;2023-02-15T01:11:05;10.30;;;8.75;;
30543;SDS011;43388;46.308;4.600;2023-02-15T01:13:32;10.75;;;8.38;;
30543;SDS011;43388;46.308;4.600;2023-02-15T01:15:58;10.45;;;8.75;;
30543;SDS011;43388;46.308;4.600;2023-02-15T01:18:24;9.70;;;8.70;;
30543;SDS011;43388;46.308;4.600;2023-02-15T01:20:50;10.50;;;8.50;;
30543;SDS011;43388;46.308;4.600;2023-02-15T01:23:16;8.55;;;7.75;;
30543;SDS011;43388;46.308;4.600;2023-02-15T01:25:42;10.82;;;8.90;;
30543;SDS011;43388;46.308;4.600;2023-02-15T01:28:08;11.95;;;8.45;;
30543;SDS011;43388;46.308;4.600;2023-02-15T01:30:34;10.73;;;8.23;;
30543;SDS011;43388;46.308;4.600;2023-02-15T01:33:01;9.07;;;8.18;;
30543;SDS011;43388;46.308;4.600;2023-02-15T01:35:27;11.43;;;8.38;;
30543;SDS011;43388;46.308;4.600;2023-02-15T01:37:53;9.40;;;7.68;;
30543;SDS011;43388;46.308;4.600;2023-02-15T01:40:19;9.60;;;8.68;;
30543;SDS011;43388;46.308;4.600;2023-02-15T01:42:49;10.50;;;8.68;;
30543;SDS011;43388;46.308;4.600;2023-02-15T01:45:23;8.93;;;8.05;;
30543;SDS011;43388;46.308;4.600;2023-02-15T01:47:51;9.57;;;8.45;;
30543;SDS011;43388;46.308;4.600;2023-02-15T01:50:20;8.43;;;7.55;;
30543;SDS011;43388;46.308;4.600;2023-02-15T01:53:30;8.02;;;7.28;;
30543;SDS011;43388;46.308;4.600;2023-02-15T01:55:37;7.95;;;7.20;;
30543;SDS011;43388;46.308;4.600;2023-02-15T01:58:05;7.68;;;6.47;;
30543;SDS011;43388;46.308;4.600;2023-02-15T02:00:31;7.85;;;7.05;;
30543;SDS011;43388;46.308;4.600;2023-02-15T02:02:58;8.82;;;7.18;;
30543;SDS011;43388;46.308;4.600;2023-02-15T02:05:24;8.15;;;7.35;;
30543;SDS011;43388;46.308;4.600;2023-02-15T02:07:51;8.63;;;7.03;;
30543;SDS011;43388;46.308;4.600;2023-02-15T02:10:19;7.95;;;6.78;;
30543;SDS011;43388;46.308;4.600;2023-02-15T02:12:46;7.45;;;6.50;;
30543;SDS011;43388;46.308;4.600;2023-02-15T02:15:13;8.10;;;7.30;;
30543;SDS011;43388;46.308;4.600;2023-02-15T02:17:51;8.27;;;6.68;;
30543;SDS011;43388;46.308;4.600;2023-02-15T02:31:07;14.05;;;7.38;;
30543;SDS011;43388;46.308;4.600;2023-02-15T02:39:23;10.73;;;9.68;;
30543;SDS011;43388;46.308;4.600;2023-02-15T02:41:58;9.63;;;8.63;;
30543;SDS011;43388;46.308;4.600;2023-02-15T02:46:53;11.68;;;10.32;;
30543;SDS011;43388;46.308;4.600;2023-02-15T02:49:31;11.73;;;10.27;;
30543;SDS011;43388;46.308;4.600;2023-02-15T02:52:01;12.48;;;11.15;;
30543;SDS011;43388;46.308;4.600;2023-02-15T02:54:27;12.52;;;11.23;;
30543;SDS011;43388;46.308;4.600;2023-02-15T02:56:54;14.32;;;12.00;;
30543;SDS011;43388;46.308;4.600;2023-02-15T02:59:32;14.02;;;12.63;;
30543;SDS011;43388;46.308;4.600;2023-02-15T03:02:01;17.00;;;12.75;;
30543;SDS011;43388;46.308;4.600;2023-02-15T03:04:31;15.18;;;12.27;;
30543;SDS011;43388;46.308;4.600;2023-02-15T03:07:00;16.33;;;12.32;;
30543;SDS011;43388;46.308;4.600;2023-02-15T03:09:37;14.13;;;12.63;;
30543;SDS011;43388;46.308;4.600;2023-02-15T03:12:10;14.82;;;12.23;;
30543;SDS011;43388;46.308;4.600;2023-02-15T03:14:37;12.48;;;11.18;;
30543;SDS011;43388;46.308;4.600;2023-02-15T03:17:04;12.75;;;11.38;;
30543;SDS011;43388;46.308;4.600;2023-02-15T03:19:33;14.80;;;12.63;;
30543;SDS011;43388;46.308;4.600;2023-02-15T03:22:01;13.13;;;11.82;;
30543;SDS011;43388;46.308;4.600;2023-02-15T03:27:04;16.40;;;11.35;;
30543;SDS011;43388;46.308;4.600;2023-02-15T03:29:31;13.85;;;11.10;;
30543;SDS011;43388;46.308;4.600;2023-02-15T03:31:59;16.10;;;11.82;;
30543;SDS011;43388;46.308;4.600;2023-02-15T03:34:26;12.32;;;11.02;;
30543;SDS011;43388;46.308;4.600;2023-02-15T03:39:39;13.18;;;11.43;;
30543;SDS011;43388;46.308;4.600;2023-02-15T03:47:23;12.20;;;10.40;;
30543;SDS011;43388;46.308;4.600;2023-02-15T03:50:01;12.90;;;11.50;;
30543;SDS011;43388;46.308;4.600;2023-02-15T03:52:28;12.10;;;10.88;;
30543;SDS011;43388;46.308;4.600;2023-02-15T03:54:55;12.10;;;10.90;;
30543;SDS011;43388;46.308;4.600;2023-02-15T03:57:22;12.07;;;10.85;;
30543;SDS011;43388;46.308;4.600;2023-02-15T04:05:36;15.88;;;14.25;;
30543;SDS011;43388;46.308;4.600;2023-02-15T04:08:02;14.63;;;12.40;;
30543;SDS011;43388;46.308;4.600;2023-02-15T04:10:28;14.57;;;13.05;;
30543;SDS011;43388;46.308;4.600;2023-02-15T04:13:13;15.50;;;12.48;;
30543;SDS011;43388;46.308;4.600;2023-02-15T04:15:39;15.68;;;12.60;;
30543;SDS011;43388;46.308;4.600;2023-02-15T04:18:24;18.13;;;13.77;;
30543;SDS011;43388;46.308;4.600;2023-02-15T04:21:08;15.90;;;14.15;;
30543;SDS011;43388;46.308;4.600;2023-02-15T04:23:52;16.05;;;14.32;;
30543;SDS011;43388;46.308;4.600;2023-02-15T04:26:37;17.20;;;14.87;;
30543;SDS011;43388;46.308;4.600;2023-02-15T04:29:03;16.55;;;14.85;;
30543;SDS011;43388;46.308;4.600;2023-02-15T04:31:29;17.65;;;15.48;;
30543;SDS011;43388;46.308;4.600;2023-02-15T04:33:55;15.98;;;14.15;;
30543;SDS011;43388;46.308;4.600;2023-02-15T04:36:21;16.83;;;14.05;;
30543;SDS011;43388;46.308;4.600;2023-02-15T04:38:47;14.75;;;13.25;;
30543;SDS011;43388;46.308;4.600;2023-02-15T04:41:13;16.63;;;14.50;;
30543;SDS011;43388;46.308;4.600;2023-02-15T04:43:39;15.52;;;13.20;;
30543;SDS011;43388;46.308;4.600;2023-02-15T04:46:05;19.90;;;14.63;;
30543;SDS011;43388;46.308;4.600;2023-02-15T04:48:31;17.65;;;13.82;;
30543;SDS011;43388;46.308;4.600;2023-02-15T04:50:57;17.15;;;14.07;;
30543;SDS011;43388;46.308;4.600;2023-02-15T04:53:23;17.30;;;15.60;;
30543;SDS011;43388;46.308;4.600;2023-02-15T04:55:49;19.35;;;15.95;;
30543;SDS011;43388;46.308;4.600;2023-02-15T04:58:15;18.63;;;16.25;;
30543;SDS011;43388;46.308;4.600;2023-02-15T05:00:41;17.20;;;15.32;;
30543;SDS011;43388;46.308;4.600;2023-02-15T05:03:07;20.00;;;17.10;;
30543;SDS011;43388;46.308;4.600;2023-02-15T05:05:33;19.98;;;17.88;;
30543;SDS011;43388;46.308;4.600;2023-02-15T05:07:59;21.83;;;18.48;;
30543;SDS011;43388;46.308;4.600;2023-02-15T05:10:25;21.30;;;19.05;;
30543;SDS011;43388;46.308;4.600;2023-02-15T05:12:51;19.67;;;17.48;;
30543;SDS011;43388;46.308;4.600;2023-02-15T05:15:17;21.38;;;19.13;;
30543;SDS011;43388;46.308;4.600;2023-02-15T05:17:43;22.20;;;19.48;;
30543;SDS011;43388;46.308;4.600;2023-02-15T05:20:09;23.05;;;20.45;;
30543;SDS011;43388;46.308;4.600;2023-02-15T05:22:35;21.90;;;19.60;;
30543;SDS011;43388;46.308;4.600;2023-02-15T05:25:01;21.90;;;19.48;;
30543;SDS011;43388;46.308;4.600;2023-02-15T05:27:46;23.65;;;20.00;;
30543;SDS011;43388;46.308;4.600;2023-02-15T05:30:32;24.10;;;21.45;;
30543;SDS011;43388;46.308;4.600;2023-02-15T05:32:58;26.15;;;20.45;;
30543;SDS011;43388;46.308;4.600;2023-02-15T05:35:24;26.35;;;21.75;;
30543;SDS011;43388;46.308;4.600;2023-02-15T05:37:50;25.17;;;21.10;;
30543;SDS011;43388;46.308;4.600;2023-02-15T05:40:16;26.35;;;21.75;;
30543;SDS011;43388;46.308;4.600;2023-02-15T05:42:42;23.73;;;21.17;;
30543;SDS011;43388;46.308;4.600;2023-02-15T05:45:08;23.50;;;21.00;;
30543;SDS011;43388;46.308;4.600;2023-02-15T05:47:34;25.83;;;21.00;;
30543;SDS011;43388;46.308;4.600;2023-02-15T05:50:01;24.17;;;21.35;;
30543;SDS011;43388;46.308;4.600;2023-02-15T05:52:27;24.30;;;21.63;;
30543;SDS011;43388;46.308;4.600;2023-02-15T05:54:53;24.15;;;21.55;;
30543;SDS011;43388;46.308;4.600;2023-02-15T05:57:19;24.27;;;21.67;;
30543;SDS011;43388;46.308;4.600;2023-02-15T05:59:45;24.92;;;22.17;;
30543;SDS011;43388;46.308;4.600;2023-02-15T06:02:11;25.88;;;22.50;;
30543;SDS011;43388;46.308;4.600;2023-02-15T06:04:38;26.05;;;22.92;;
30543;SDS011;43388;46.308;4.600;2023-02-15T06:07:04;25.15;;;22.55;;
30543;SDS011;43388;46.308;4.600;2023-02-15T06:09:30;26.00;;;21.85;;
30543;SDS011;43388;46.308;4.600;2023-02-15T06:11:56;27.90;;;22.85;;
30543;SDS011;43388;46.308;4.600;2023-02-15T06:14:22;26.92;;;21.90;;
30543;SDS011;43388;46.308;4.600;2023-02-15T06:16:48;26.05;;;21.63;;
30543;SDS011;43388;46.308;4.600;2023-02-15T06:19:14;29.85;;;23.17;;
30543;SDS011;43388;46.308;4.600;2023-02-15T06:21:40;26.80;;;23.25;;
30543;SDS011;43388;46.308;4.600;2023-02-15T06:24:07;27.60;;;24.60;;
30543;SDS011;43388;46.308;4.600;2023-02-15T06:26:34;27.95;;;23.60;;
30543;SDS011;43388;46.308;4.600;2023-02-15T06:29:00;28.58;;;24.08;;
30543;SDS011;43388;46.308;4.600;2023-02-15T06:31:26;28.85;;;24.10;;
30543;SDS011;43388;46.308;4.600;2023-02-15T06:33:52;28.40;;;24.40;;
30543;SDS011;43388;46.308;4.600;2023-02-15T06:36:25;27.42;;;24.23;;
30543;SDS011;43388;46.308;4.600;2023-02-15T06:38:51;26.73;;;23.98;;
30543;SDS011;43388;46.308;4.600;2023-02-15T06:41:17;27.27;;;24.05;;
30543;SDS011;43388;46.308;4.600;2023-02-15T06:43:43;28.70;;;23.45;;
30543;SDS011;43388;46.308;4.600;2023-02-15T06:46:09;29.17;;;24.35;;
30543;SDS011;43388;46.308;4.600;2023-02-15T06:48:35;32.28;;;25.65;;
30543;SDS011;43388;46.308;4.600;2023-02-15T06:51:01;30.00;;;26.02;;
30543;SDS011;43388;46.308;4.600;2023-02-15T06:53:27;30.50;;;25.35;;
30543;SDS011;43388;46.308;4.600;2023-02-15T06:55:59;30.75;;;25.60;;
30543;SDS011;43388;46.308;4.600;2023-02-15T06:58:25;29.10;;;25.92;;
30543;SDS011;43388;46.308;4.600;2023-02-15T07:00:51;29.92;;;24.30;;
30543;SDS011;43388;46.308;4.600;2023-02-15T07:03:17;30.85;;;24.67;;
30543;SDS011;43388;46.308;4.600;2023-02-15T07:05:43;27.08;;;24.15;;
30543;SDS011;43388;46.308;4.600;2023-02-15T07:08:10;31.60;;;23.63;;
30543;SDS011;43388;46.308;4.600;2023-02-15T07:10:36;30.90;;;25.08;;
30543;SDS011;43388;46.308;4.600;2023-02-15T07:13:02;27.55;;;21.75;;
30543;SDS011;43388;46.308;4.600;2023-02-15T07:15:29;32.10;;;25.02;;
30543;SDS011;43388;46.308;4.600;2023-02-15T07:17:56;27.67;;;21.77;;
30543;SDS011;43388;46.308;4.600;2023-02-15T07:20:23;32.35;;;25.15;;
30543;SDS011;43388;46.308;4.600;2023-02-15T07:22:49;25.15;;;22.40;;
30543;SDS011;43388;46.308;4.600;2023-02-15T07:25:15;23.80;;;21.15;;
30543;SDS011;43388;46.308;4.600;2023-02-15T07:27:41;26.02;;;20.38;;
30543;SDS011;43388;46.308;4.600;2023-02-15T07:30:09;22.60;;;19.83;;
30543;SDS011;43388;46.308;4.600;2023-02-15T07:32:36;21.80;;;19.05;;
30543;SDS011;43388;46.308;4.600;2023-02-15T07:35:22;24.45;;;21.52;;
30543;SDS011;43388;46.308;4.600;2023-02-15T07:37:48;22.65;;;18.98;;
30543;SDS011;43388;46.308;4.600;2023-02-15T07:40:14;21.60;;;18.05;;
30543;SDS011;43388;46.308;4.600;2023-02-15T07:42:40;21.63;;;19.33;;
30543;SDS011;43388;46.308;4.600;2023-02-15T07:45:06;21.67;;;17.38;;
30543;SDS011;43388;46.308;4.600;2023-02-15T07:47:32;23.83;;;17.73;;
30543;SDS011;43388;46.308;4.600;2023-02-15T07:49:58;19.67;;;17.58;;
30543;SDS011;43388;46.308;4.600;2023-02-15T07:52:25;26.70;;;19.40;;
30543;SDS011;43388;46.308;4.600;2023-02-15T07:54:52;21.15;;;18.77;;
30543;SDS011;43388;46.308;4.600;2023-02-15T07:57:18;20.60;;;17.95;;
30543;SDS011;43388;46.308;4.600;2023-02-15T07:59:44;21.25;;;19.05;;
30543;SDS011;43388;46.308;4.600;2023-02-15T08:02:10;19.98;;;17.55;;
30543;SDS011;43388;46.308;4.600;2023-02-15T08:04:36;21.73;;;18.98;;
30543;SDS011;43388;46.308;4.600;2023-02-15T08:07:02;23.08;;;18.50;;
30543;SDS011;43388;46.308;4.600;2023-02-15T08:09:29;17.75;;;15.80;;
30543;SDS011;43388;46.308;4.600;2023-02-15T08:11:55;18.50;;;16.52;;
30543;SDS011;43388;46.308;4.600;2023-02-15T08:14:21;19.48;;;17.27;;
30543;SDS011;43388;46.308;4.600;2023-02-15T08:16:48;20.80;;;16.48;;
30543;SDS011;43388;46.308;4.600;2023-02-15T08:19:27;16.70;;;14.80;;
30543;SDS011;43388;46.308;4.600;2023-02-15T08:21:55;16.30;;;14.60;;
30543;SDS011;43388;46.308;4.600;2023-02-15T08:24:30;18.13;;;14.88;;
30543;SDS011;43388;46.308;4.600;2023-02-15T08:26:56;16.63;;;14.73;;
30543;SDS011;43388;46.308;4.600;2023-02-15T08:29:24;15.23;;;13.63;;
30543;SDS011;43388;46.308;4.600;2023-02-15T08:31:54;14.18;;;12.70;;
30543;SDS011;43388;46.308;4.600;2023-02-15T08:34:20;14.15;;;12.65;;
30543;SDS011;43388;46.308;4.600;2023-02-15T08:36:46;13.18;;;11.85;;
30543;SDS011;43388;46.308;4.600;2023-02-15T08:39:13;12.85;;;11.55;;
30543;SDS011;43388;46.308;4.600;2023-02-15T08:41:43;24.98;;;22.27;;
30543;SDS011;43388;46.308;4.600;2023-02-15T08:44:10;35.00;;;31.65;;
30543;SDS011;43388;46.308;4.600;2023-02-15T08:46:37;35.65;;;31.98;;
30543;SDS011;43388;46.308;4.600;2023-02-15T08:49:04;29.05;;;26.05;;
30543;SDS011;43388;46.308;4.600;2023-02-15T08:51:30;25.92;;;23.13;;
30543;SDS011;43388;46.308;4.600;2023-02-15T08:53:58;26.42;;;21.13;;
30543;SDS011;43388;46.308;4.600;2023-02-15T08:56:25;23.80;;;21.30;;
30543;SDS011;43388;46.308;4.600;2023-02-15T08:58:55;25.48;;;20.13;;
30543;SDS011;43388;46.308;4.600;2023-02-15T09:01:22;24.08;;;18.23;;
30543;SDS011;43388;46.308;4.600;2023-02-15T09:03:50;22.75;;;18.45;;
30543;SDS011;43388;46.308;4.600;2023-02-15T09:06:20;22.23;;;18.95;;
30543;SDS011;43388;46.308;4.600;2023-02-15T09:08:46;20.05;;;17.65;;
30543;SDS011;43388;46.308;4.600;2023-02-15T09:13:38;20.08;;;17.25;;
30543;SDS011;43388;46.308;4.600;2023-02-15T09:16:07;23.40;;;17.92;;
30543;SDS011;43388;46.308;4.600;2023-02-15T09:18:35;22.38;;;17.33;;
30543;SDS011;43388;46.308;4.600;2023-02-15T09:21:12;27.35;;;17.45;;
30543;SDS011;43388;46.308;4.600;2023-02-15T09:23:39;20.25;;;18.05;;
30543;SDS011;43388;46.308;4.600;2023-02-15T09:26:06;23.83;;;18.10;;
30543;SDS011;43388;46.308;4.600;2023-02-15T09:28:32;19.92;;;17.92;;
30543;SDS011;43388;46.308;4.600;2023-02-15T09:31:06;18.60;;;16.63;;
30543;SDS011;43388;46.308;4.600;2023-02-15T09:33:35;19.42;;;17.40;;
30543;SDS011;43388;46.308;4.600;2023-02-15T09:36:02;23.98;;;18.85;;
30543;SDS011;43388;46.308;4.600;2023-02-15T09:38:28;19.50;;;17.38;;
30543;SDS011;43388;46.308;4.600;2023-02-15T09:43:35;17.63;;;15.80;;
30543;SDS011;43388;46.308;4.600;2023-02-15T09:46:29;21.20;;;18.98;;
30543;SDS011;43388;46.308;4.600;2023-02-15T09:48:52;10.55;;;8.23;;
30543;SDS011;43388;46.308;4.600;2023-02-15T09:51:35;5.85;;;5.25;;
30543;SDS011;43388;46.308;4.600;2023-02-15T09:54:17;4.82;;;4.43;;
30543;SDS011;43388;46.308;4.600;2023-02-15T09:56:53;4.50;;;4.03;;
30543;SDS011;43388;46.308;4.600;2023-02-15T10:04:49;6.95;;;5.68;;
30543;SDS011;43388;46.308;4.600;2023-02-15T10:15:14;3.97;;;3.67;;
30543;SDS011;43388;46.308;4.600;2023-02-15T10:28:19;6.03;;;4.60;;
30543;SDS011;43388;46.308;4.600;2023-02-15T10:30:49;6.25;;;5.47;;
30543;SDS011;43388;46.308;4.600;2023-02-15T10:39:47;7.47;;;5.65;;
30543;SDS011;43388;46.308;4.600;2023-02-15T10:44:23;5.40;;;4.90;;
30543;SDS011;43388;46.308;4.600;2023-02-15T11:06:39;6.75;;;6.10;;
30543;SDS011;43388;46.308;4.600;2023-02-15T11:09:10;6.47;;;5.88;;
30543;SDS011;43388;46.308;4.600;2023-02-15T11:11:38;5.28;;;4.88;;
30543;SDS011;43388;46.308;4.600;2023-02-15T11:16:52;7.43;;;5.85;;
30543;SDS011;43388;46.308;4.600;2023-02-15T11:19:28;6.90;;;6.22;;
30543;SDS011;43388;46.308;4.600;2023-02-15T11:21:57;6.22;;;5.38;;
30543;SDS011;43388;46.308;4.600;2023-02-15T11:24:26;6.28;;;5.38;;
30543;SDS011;43388;46.308;4.600;2023-02-15T11:34:49;12.60;;;6.63;;
30543;SDS011;43388;46.308;4.600;2023-02-15T11:37:17;7.30;;;6.60;;
30543;SDS011;43388;46.308;4.600;2023-02-15T11:39:43;6.72;;;6.13;;
30543;SDS011;43388;46.308;4.600;2023-02-15T11:42:16;9.88;;;5.93;;
30543;SDS011;43388;46.308;4.600;2023-02-15T11:47:29;8.93;;;7.80;;
30543;SDS011;43388;46.308;4.600;2023-02-15T11:49:55;14.00;;;11.63;;
30543;SDS011;43388;46.308;4.600;2023-02-15T11:52:22;12.43;;;10.77;;
30543;SDS011;43388;46.308;4.600;2023-02-15T11:54:49;13.90;;;11.38;;
30543;SDS011;43388;46.308;4.600;2023-02-15T11:59:44;10.02;;;9.02;;
30543;SDS011;43388;46.308;4.600;2023-02-15T12:02:15;7.57;;;6.95;;
30543;SDS011;43388;46.308;4.600;2023-02-15T12:04:43;8.70;;;7.90;;
30543;SDS011;43388;46.308;4.600;2023-02-15T12:07:24;7.18;;;6.20;;
30543;SDS011;43388;46.308;4.600;2023-02-15T12:14:51;13.52;;;12.13;;
30543;SDS011;43388;46.308;4.600;2023-02-15T12:17:17;7.68;;;7.03;;
30543;SDS011;43388;46.308;4.600;2023-02-15T12:19:44;6.47;;;5.93;;
30543;SDS011;43388;46.308;4.600;2023-02-15T12:22:24;7.43;;;6.65;;
30543;SDS011;43388;46.308;4.600;2023-02-15T12:24:51;9.40;;;6.38;;
30543;SDS011;43388;46.308;4.600;2023-02-15T12:27:23;6.47;;;5.65;;
30543;SDS011;43388;46.308;4.600;2023-02-15T12:29:51;7.40;;;6.75;;
30543;SDS011;43388;46.308;4.600;2023-02-15T12:32:24;6.63;;;6.03;;
30543;SDS011;43388;46.308;4.600;2023-02-15T12:34:51;8.18;;;6.60;;
30543;SDS011;43388;46.308;4.600;2023-02-15T12:37:21;11.52;;;9.18;;
30543;SDS011;43388;46.308;4.600;2023-02-15T12:39:55;16.33;;;14.63;;
30543;SDS011;43388;46.308;4.600;2023-02-15T12:42:22;20.58;;;18.42;;
30543;SDS011;43388;46.308;4.600;2023-02-15T12:45:02;27.67;;;20.50;;
30543;SDS011;43388;46.308;4.600;2023-02-15T12:47:29;24.65;;;22.20;;
30543;SDS011;43388;46.308;4.600;2023-02-15T12:50:12;24.50;;;22.08;;
30543;SDS011;43388;46.308;4.600;2023-02-15T12:52:45;24.42;;;21.92;;
30543;SDS011;43388;46.308;4.600;2023-02-15T12:57:44;23.27;;;20.92;;
30543;SDS011;43388;46.308;4.600;2023-02-15T13:07:47;21.83;;;19.77;;
30543;SDS011;43388;46.308;4.600;2023-02-15T13:10:21;22.05;;;19.88;;
30543;SDS011;43388;46.308;4.600;2023-02-15T13:12:49;23.75;;;19.45;;
30543;SDS011;43388;46.308;4.600;2023-02-15T13:15:52;21.95;;;19.55;;
30543;SDS011;43388;46.308;4.600;2023-02-15T13:18:12;21.25;;;18.92;;
30543;SDS011;43388;46.308;4.600;2023-02-15T13:20:40;22.98;;;20.58;;
30543;SDS011;43388;46.308;4.600;2023-02-15T13:23:19;23.80;;;20.88;;
30543;SDS011;43388;46.308;4.600;2023-02-15T13:25:46;23.88;;;21.42;;
30543;SDS011;43388;46.308;4.600;2023-02-15T13:28:15;22.55;;;20.33;;
30543;SDS011;43388;46.308;4.600;2023-02-15T13:30:43;23.20;;;20.77;;
30543;SDS011;43388;46.308;4.600;2023-02-15T13:36:05;23.95;;;21.05;;
30543;SDS011;43388;46.308;4.600;2023-02-15T13:42:08;21.73;;;19.48;;
30543;SDS011;43388;46.308;4.600;2023-02-15T13:49:25;20.48;;;18.50;;
30543;SDS011;43388;46.308;4.600;2023-02-15T13:52:07;20.00;;;18.20;;
30543;SDS011;43388;46.308;4.600;2023-02-15T14:07:20;24.13;;;21.90;;
30543;SDS011;43388;46.308;4.600;2023-02-15T14:20:02;20.88;;;18.98;;
30543;SDS011;43388;46.308;4.600;2023-02-15T14:22:31;18.60;;;16.80;;
30543;SDS011;43388;46.308;4.600;2023-02-15T14:30:19;17.27;;;15.68;;
30543;SDS011;43388;46.308;4.600;2023-02-15T14:32:47;17.20;;;15.30;;
30543;SDS011;43388;46.308;4.600;2023-02-15T14:35:16;17.48;;;15.45;;
30543;SDS011;43388;46.308;4.600;2023-02-15T14:38:00;15.88;;;14.38;;
30543;SDS011;43388;46.308;4.600;2023-02-15T14:43:19;14.15;;;12.95;;
30543;SDS011;43388;46.308;4.600;2023-02-15T14:45:50;13.43;;;12.32;;
30543;SDS011;43388;46.308;4.600;2023-02-15T14:50:47;14.57;;;13.18;;
30543;SDS011;43388;46.308;4.600;2023-02-15T14:55:42;14.18;;;11.75;;
30543;SDS011;43388;46.308;4.600;2023-02-15T14:58:11;14.00;;;12.70;;
30543;SDS011;43388;46.308;4.600;2023-02-15T15:00:38;15.18;;;12.10;;
30543;SDS011;43388;46.308;4.600;2023-02-15T15:03:12;13.00;;;11.80;;
30543;SDS011;43388;46.308;4.600;2023-02-15T15:05:51;12.77;;;11.18;;
30543;SDS011;43388;46.308;4.600;2023-02-15T15:08:22;12.20;;;11.10;;
30543;SDS011;43388;46.308;4.600;2023-02-15T15:10:51;12.02;;;10.98;;
30543;SDS011;43388;46.308;4.600;2023-02-15T15:18:46;13.52;;;10.95;;
30543;SDS011;43388;46.308;4.600;2023-02-15T15:23:57;13.15;;;11.65;;
30543;SDS011;43388;46.308;4.600;2023-02-15T15:26:25;13.15;;;11.65;;
30543;SDS011;43388;46.308;4.600;2023-02-15T15:31:28;12.93;;;11.65;;
30543;SDS011;43388;46.308;4.600;2023-02-15T15:42:22;14.15;;;12.75;;
30543;SDS011;43388;46.308;4.600;2023-02-15T15:47:37;13.60;;;12.20;;
30543;SDS011;43388;46.308;4.600;2023-02-15T15:50:16;14.75;;;13.13;;
30543;SDS011;43388;46.308;4.600;2023-02-15T15:52:49;16.00;;;12.63;;
30543;SDS011;43388;46.308;4.600;2023-02-15T15:55:17;14.23;;;12.40;;
30543;SDS011;43388;46.308;4.600;2023-02-15T15:57:44;13.98;;;12.50;;
30543;SDS011;43388;46.308;4.600;2023-02-15T16:00:33;14.70;;;12.93;;
30543;SDS011;43388;46.308;4.600;2023-02-15T16:02:57;16.02;;;13.80;;
30543;SDS011;43388;46.308;4.600;2023-02-15T16:05:23;14.55;;;13.25;;
30543;SDS011;43388;46.308;4.600;2023-02-15T16:07:49;14.88;;;13.35;;
30543;SDS011;43388;46.308;4.600;2023-02-15T16:10:22;15.90;;;14.18;;
30543;SDS011;43388;46.308;4.600;2023-02-15T16:12:49;15.00;;;13.55;;
30543;SDS011;43388;46.308;4.600;2023-02-15T16:15:17;16.48;;;14.77;;
30543;SDS011;43388;46.308;4.600;2023-02-15T16:17:44;14.93;;;13.32;;
30543;SDS011;43388;46.308;4.600;2023-02-15T16:20:23;15.93;;;14.27;;
30543;SDS011;43388;46.308;4.600;2023-02-15T16:22:53;17.08;;;14.30;;
30543;SDS011;43388;46.308;4.600;2023-02-15T16:28:21;15.20;;;13.60;;
30543;SDS011;43388;46.308;4.600;2023-02-15T16:30:54;16.95;;;13.38;;
30543;SDS011;43388;46.308;4.600;2023-02-15T16:33:20;12.70;;;11.20;;
30543;SDS011;43388;46.308;4.600;2023-02-15T16:38:21;12.13;;;10.13;;
30543;SDS011;43388;46.308;4.600;2023-02-15T16:40:52;14.75;;;11.32;;
30543;SDS011;43388;46.308;4.600;2023-02-15T16:43:25;14.15;;;12.73;;
30543;SDS011;43388;46.308;4.600;2023-02-15T16:45:53;17.85;;;12.60;;
30543;SDS011;43388;46.308;4.600;2023-02-15T16:48:24;12.30;;;10.82;;
30543;SDS011;43388;46.308;4.600;2023-02-15T16:50:55;12.65;;;11.35;;
30543;SDS011;43388;46.308;4.600;2023-02-15T16:53:24;17.08;;;12.77;;
30543;SDS011;43388;46.308;4.600;2023-02-15T16:55:51;13.75;;;12.35;;
30543;SDS011;43388;46.308;4.600;2023-02-15T16:58:19;21.00;;;17.58;;
30543;SDS011;43388;46.308;4.600;2023-02-15T17:00:47;48.25;;;36.83;;
30543;SDS011;43388;46.308;4.600;2023-02-15T17:10:36;32.20;;;22.60;;
30543;SDS011;43388;46.308;4.600;2023-02-15T17:13:09;28.35;;;20.27;;
30543;SDS011;43388;46.308;4.600;2023-02-15T17:15:36;25.60;;;21.60;;
30543;SDS011;43388;46.308;4.600;2023-02-15T17:18:08;21.83;;;18.70;;
30543;SDS011;43388;46.308;4.600;2023-02-15T17:20:35;22.30;;;19.98;;
30543;SDS011;43388;46.308;4.600;2023-02-15T17:23:03;22.20;;;19.20;;
30543;SDS011;43388;46.308;4.600;2023-02-15T17:25:34;19.02;;;16.90;;
30543;SDS011;43388;46.308;4.600;2023-02-15T17:28:01;20.98;;;17.80;;
30543;SDS011;43388;46.308;4.600;2023-02-15T17:30:29;23.15;;;19.60;;
30543;SDS011;43388;46.308;4.600;2023-02-15T17:33:00;21.23;;;18.90;;
30543;SDS011;43388;46.308;4.600;2023-02-15T17:35:35;23.70;;;20.38;;
30543;SDS011;43388;46.308;4.600;2023-02-15T17:38:04;23.88;;;20.23;;
30543;SDS011;43388;46.308;4.600;2023-02-15T17:40:34;22.42;;;18.63;;
30543;SDS011;43388;46.308;4.600;2023-02-15T17:43:01;21.00;;;17.60;;
30543;SDS011;43388;46.308;4.600;2023-02-15T17:45:34;22.10;;;16.98;;
30543;SDS011;43388;46.308;4.600;2023-02-15T17:48:04;22.08;;;18.73;;
30543;SDS011;43388;46.308;4.600;2023-02-15T17:50:31;23.52;;;17.60;;
30543;SDS011;43388;46.308;4.600;2023-02-15T17:52:58;24.05;;;16.75;;
30543;SDS011;43388;46.308;4.600;2023-02-15T17:55:26;19.13;;;16.75;;
30543;SDS011;43388;46.308;4.600;2023-02-15T17:58:14;18.17;;;14.93;;
30543;SDS011;43388;46.308;4.600;2023-02-15T18:00:58;22.45;;;19.83;;